Time;durP1;ratioP1;P1;durP2;ratioP2;P2;SDS_P1;SDS_P2;PMS_P1;PMS_P2;Temp;Humidity;BMP_temperature;BMP_pressure;BME280_temperature;BME280_humidity;BME280_pressure;Samples;Min_cycle;Max_cycle;Signal;HPM_P1;HPM_P2
2022/05/28 00:00:12;;;;;;;5.83;4.77;;;14.30;99.90;;;;;;6031109;23;20448;-77
2022/05/28 00:02:39;;;;;;;5.67;4.00;;;14.30;99.90;;;;;;6030618;23;20440;-76
2022/05/28 00:05:07;;;;;;;6.00;4.30;;;14.30;99.90;;;;;;6031527;23;20445;-77
2022/05/28 00:07:34;;;;;;;4.53;4.07;;;14.30;99.90;;;;;;6029819;23;20460;-77
2022/05/28 00:10:01;;;;;;;7.83;5.13;;;14.40;99.90;;;;;;6032010;23;20456;-77
2022/05/28 00:12:31;;;;;;;4.70;4.00;;;14.40;99.90;;;;;;6026606;23;20451;-77
2022/05/28 00:14:58;;;;;;;5.13;4.47;;;14.40;99.90;;;;;;6031639;23;20437;-76
2022/05/28 00:17:26;;;;;;;6.50;4.43;;;14.40;99.90;;;;;;6030436;23;20468;-76
2022/05/28 00:19:54;;;;;;;5.70;4.50;;;14.30;99.90;;;;;;6028492;23;20837;-77
2022/05/28 00:22:21;;;;;;;4.40;3.97;;;14.30;99.90;;;;;;6028798;23;20474;-77
2022/05/28 00:24:48;;;;;;;5.93;3.80;;;14.40;99.90;;;;;;6031327;23;20520;-77
2022/05/28 00:27:15;;;;;;;5.80;4.00;;;14.30;99.90;;;;;;6030495;23;20464;-76
2022/05/28 00:29:43;;;;;;;4.20;3.80;;;14.20;99.90;;;;;;6031465;23;20464;-77
2022/05/28 00:32:10;;;;;;;5.47;4.10;;;14.30;99.90;;;;;;6033793;23;20444;-77
2022/05/28 00:34:40;;;;;;;5.90;3.77;;;14.20;99.90;;;;;;6027726;23;20527;-77
2022/05/28 00:37:07;;;;;;;4.43;4.03;;;14.20;99.90;;;;;;6032679;23;20530;-77
2022/05/28 00:39:34;;;;;;;4.97;4.57;;;14.30;99.90;;;;;;6030986;23;20436;-77
2022/05/28 00:42:02;;;;;;;5.23;4.30;;;14.30;99.90;;;;;;6032546;23;20440;-77
2022/05/28 00:44:29;;;;;;;4.13;3.73;;;14.30;99.90;;;;;;6030344;23;20480;-77
2022/05/28 00:46:59;;;;;;;4.80;3.93;;;14.30;99.90;;;;;;6029216;23;20468;-77
2022/05/28 00:49:30;;;;;;;7.43;4.97;;;14.30;99.90;;;;;;6029627;23;20907;-77
2022/05/28 00:52:00;;;;;;;4.37;3.70;;;14.30;99.90;;;;;;6030299;23;20515;-77
2022/05/28 00:54:30;;;;;;;9.93;5.47;;;14.30;99.90;;;;;;6031051;23;20911;-77
2022/05/28 00:56:58;;;;;;;4.57;3.90;;;14.30;99.90;;;;;;6028429;23;20464;-77
2022/05/28 00:59:25;;;;;;;5.00;4.27;;;14.30;99.90;;;;;;6029572;23;20448;-77
2022/05/28 01:02:11;;;;;;;5.00;3.63;;;14.20;99.90;;;;;;6031176;23;20535;-78
2022/05/28 01:04:47;;;;;;;4.93;3.95;;;14.20;99.90;;;;;;6031427;23;20239;-77
2022/05/28 01:07:24;;;;;;;5.82;4.32;;;14.00;99.90;;;;;;6031865;23;20307;-77
2022/05/28 01:09:58;;;;;;;5.00;3.65;;;14.00;99.90;;;;;;6031047;23;20185;-77
2022/05/28 01:12:35;;;;;;;6.72;4.75;;;13.90;99.90;;;;;;6025473;23;20177;-76
2022/05/28 01:15:07;;;;;;;6.70;4.10;;;13.90;99.90;;;;;;6024515;23;20194;-76
2022/05/28 01:17:40;;;;;;;5.63;3.10;;;13.90;99.90;;;;;;6038585;23;20475;-76
2022/05/28 01:20:12;;;;;;;7.25;3.80;;;13.80;99.90;;;;;;6028647;23;20185;-77
2022/05/28 01:22:51;;;;;;;4.35;3.40;;;13.80;99.90;;;;;;6021631;23;20267;-76
2022/05/28 01:25:27;;;;;;;6.15;3.50;;;13.70;99.90;;;;;;6031376;23;20212;-77
2022/05/28 01:28:01;;;;;;;5.22;3.13;;;13.70;99.90;;;;;;6030984;23;20726;-77
2022/05/28 01:30:28;;;;;;;4.47;3.65;;;13.70;99.90;;;;;;6030360;23;20260;-79
2022/05/28 01:32:58;;;;;;;7.88;3.85;;;13.60;99.90;;;;;;6029818;23;20190;-76
2022/05/28 01:35:28;;;;;;;3.97;3.20;;;13.70;99.90;;;;;;6031412;23;20198;-77
2022/05/28 01:37:57;;;;;;;7.43;3.30;;;13.60;99.90;;;;;;6029652;23;20475;-77
2022/05/28 01:40:25;;;;;;;6.80;4.13;;;13.60;99.90;;;;;;6027846;23;20230;-77
2022/05/28 01:42:56;;;;;;;6.70;3.20;;;13.60;99.90;;;;;;6031046;23;20899;-77
2022/05/28 01:45:27;;;;;;;5.88;3.58;;;13.60;99.90;;;;;;6037097;23;20207;-77
2022/05/28 01:47:55;;;;;;;5.28;3.70;;;13.60;99.90;;;;;;6035386;23;20213;-77
2022/05/28 01:50:25;;;;;;;4.60;3.25;;;13.50;99.90;;;;;;6029494;23;20227;-77
2022/05/28 01:52:53;;;;;;;8.00;3.67;;;13.50;99.90;;;;;;6030225;23;20598;-77
2022/05/28 01:55:24;;;;;;;5.20;3.20;;;13.50;99.90;;;;;;6031808;23;20211;-77
2022/05/28 01:57:51;;;;;;;4.57;3.38;;;13.30;99.90;;;;;;6022909;23;20279;-77
2022/05/28 02:00:20;;;;;;;9.15;3.10;;;13.20;99.90;;;;;;6029471;23;20189;-77
2022/05/28 02:02:47;;;;;;;7.10;2.97;;;13.20;99.90;;;;;;6029880;23;20189;-77
2022/05/28 02:05:14;;;;;;;3.70;2.75;;;13.10;99.90;;;;;;6031960;23;20205;-77
2022/05/28 02:07:41;;;;;;;5.25;3.20;;;13.10;99.90;;;;;;6030622;23;20236;-77
2022/05/28 02:10:13;;;;;;;7.28;3.10;;;13.10;99.90;;;;;;6027659;23;20268;-77
2022/05/28 02:12:53;;;;;;;4.35;2.70;;;13.00;99.90;;;;;;6032997;23;20185;-77
2022/05/28 02:15:42;;;;;;;6.68;2.72;;;12.90;99.90;;;;;;6030600;23;20196;-77
2022/05/28 02:18:20;;;;;;;7.53;2.97;;;12.80;99.90;;;;;;6027365;23;20688;-77
2022/05/28 02:20:57;;;;;;;4.22;2.75;;;12.70;99.90;;;;;;6027251;23;20273;-76
2022/05/28 02:23:29;;;;;;;5.70;2.63;;;12.70;99.90;;;;;;6030137;23;20215;-76
2022/05/28 02:26:00;;;;;;;5.95;2.60;;;12.60;99.90;;;;;;6027818;23;20192;-76
2022/05/28 02:28:29;;;;;;;5.60;2.70;;;12.60;99.90;;;;;;6030688;23;20548;-76
2022/05/28 02:31:02;;;;;;;4.78;2.65;;;12.60;99.90;;;;;;6030030;23;20300;-77
2022/05/28 02:33:30;;;;;;;5.88;2.85;;;12.60;99.90;;;;;;6032529;23;20286;-76
2022/05/28 02:35:56;;;;;;;5.10;2.55;;;12.60;99.90;;;;;;6029344;23;20224;-77
2022/05/28 02:38:24;;;;;;;5.10;2.92;;;12.60;99.90;;;;;;6028885;23;20213;-76
2022/05/28 02:40:52;;;;;;;6.65;2.63;;;12.60;99.90;;;;;;6030010;23;20287;-76
2022/05/28 02:43:18;;;;;;;6.47;2.90;;;12.50;99.90;;;;;;6031963;23;20193;-77
2022/05/28 02:45:45;;;;;;;7.13;3.10;;;12.40;99.90;;;;;;6028333;23;20193;-77
2022/05/28 02:48:14;;;;;;;6.78;3.45;;;12.40;99.90;;;;;;6030366;23;20220;-76
2022/05/28 02:50:41;;;;;;;4.45;2.35;;;12.30;99.90;;;;;;6027434;23;20662;-76
2022/05/28 02:53:08;;;;;;;6.53;2.40;;;12.20;99.90;;;;;;6028747;23;20544;-77
2022/05/28 02:55:35;;;;;;;8.00;2.80;;;12.20;99.90;;;;;;6029226;23;20297;-76
2022/05/28 02:58:02;;;;;;;5.00;2.53;;;12.20;99.90;;;;;;6029919;23;20564;-77
2022/05/28 03:00:29;;;;;;;10.05;3.10;;;12.10;99.90;;;;;;6023097;23;20597;-76
2022/05/28 03:02:56;;;;;;;7.18;2.70;;;12.10;99.90;;;;;;6036226;23;20268;-76
2022/05/28 03:05:25;;;;;;;9.23;3.35;;;12.00;99.90;;;;;;6027047;23;20273;-77
2022/05/28 03:07:53;;;;;;;5.97;2.55;;;12.00;99.90;;;;;;6028437;23;20216;-77
2022/05/28 03:10:20;;;;;;;6.72;2.10;;;11.90;99.90;;;;;;6028657;23;20437;-75
2022/05/28 03:12:47;;;;;;;5.63;2.45;;;11.80;99.90;;;;;;6036109;23;20196;-77
2022/05/28 03:15:14;;;;;;;4.95;2.60;;;11.80;99.90;;;;;;6027710;23;20256;-77
2022/05/28 03:17:41;;;;;;;7.15;2.85;;;11.70;99.90;;;;;;6025678;23;20611;-76
2022/05/28 03:20:09;;;;;;;8.98;2.75;;;11.60;99.90;;;;;;6034569;23;20195;-76
2022/05/28 03:22:37;;;;;;;8.63;2.95;;;11.50;99.90;;;;;;6024076;23;20670;-76
2022/05/28 03:25:05;;;;;;;5.90;2.30;;;11.40;99.90;;;;;;6023884;23;20182;-77
2022/05/28 03:27:32;;;;;;;4.78;2.40;;;11.30;99.90;;;;;;6026604;23;20280;-78
2022/05/28 03:29:59;;;;;;;7.30;2.25;;;11.20;99.90;;;;;;6022664;23;20379;-77
2022/05/28 03:32:26;;;;;;;4.22;2.20;;;11.20;99.90;;;;;;6026747;23;20493;-76
2022/05/28 03:34:53;;;;;;;7.22;2.30;;;11.10;99.90;;;;;;6027210;23;20189;-77
2022/05/28 03:37:20;;;;;;;6.65;2.22;;;11.00;99.90;;;;;;6033186;23;20286;-77
2022/05/28 03:39:49;;;;;;;4.97;1.90;;;10.90;99.90;;;;;;6033450;23;20218;-76
2022/05/28 03:42:16;;;;;;;7.97;2.97;;;10.90;99.90;;;;;;6024705;23;20234;-76
2022/05/28 03:44:42;;;;;;;6.47;2.92;;;10.80;99.90;;;;;;6032929;23;20265;-76
2022/05/28 03:47:10;;;;;;;6.95;2.25;;;10.70;99.90;;;;;;6033344;23;20266;-77
2022/05/28 03:49:39;;;;;;;5.40;2.00;;;10.60;99.90;;;;;;6030960;23;20254;-76
2022/05/28 03:52:08;;;;;;;5.35;2.50;;;10.60;99.90;;;;;;6025329;23;20224;-77
2022/05/28 03:54:35;;;;;;;7.60;2.55;;;10.60;99.90;;;;;;6031891;23;20269;-76
2022/05/28 03:57:08;;;;;;;6.32;2.00;;;10.60;99.90;;;;;;6032245;23;20568;-76
2022/05/28 03:59:35;;;;;;;5.28;2.15;;;10.50;99.90;;;;;;6032958;23;20266;-77
2022/05/28 04:02:03;;;;;;;4.68;2.00;;;10.50;99.90;;;;;;6033716;23;20204;-76
2022/05/28 04:04:30;;;;;;;6.47;2.70;;;10.50;99.90;;;;;;6031272;23;20193;-76
2022/05/28 04:07:00;;;;;;;3.92;2.05;;;10.50;99.90;;;;;;6031412;23;20219;-77
2022/05/28 04:09:27;;;;;;;3.53;1.90;;;10.50;99.90;;;;;;6015789;23;20201;-77
2022/05/28 04:11:54;;;;;;;5.30;1.83;;;10.60;99.90;;;;;;6033411;23;20200;-76
2022/05/28 04:14:22;;;;;;;5.88;2.63;;;10.60;99.90;;;;;;6031697;23;20268;-77
2022/05/28 04:16:49;;;;;;;6.35;2.63;;;10.60;99.90;;;;;;6031258;23;20209;-77
2022/05/28 04:19:16;;;;;;;5.40;2.25;;;10.60;99.90;;;;;;6017256;23;20304;-77
2022/05/28 04:21:43;;;;;;;4.85;1.98;;;10.60;99.90;;;;;;6029707;23;20865;-78
2022/05/28 04:24:10;;;;;;;6.15;2.40;;;10.60;99.90;;;;;;6027711;23;20189;-78
2022/05/28 04:26:37;;;;;;;6.65;2.17;;;10.60;99.90;;;;;;6028195;23;20284;-78
2022/05/28 04:29:05;;;;;;;4.25;1.90;;;10.60;99.90;;;;;;6027912;23;20605;-76
2022/05/28 04:31:33;;;;;;;7.70;2.78;;;10.70;99.90;;;;;;6022389;23;20185;-76
2022/05/28 04:34:00;;;;;;;4.43;2.10;;;10.70;99.90;;;;;;6032101;23;20214;-77
2022/05/28 04:36:28;;;;;;;5.53;2.30;;;10.70;99.90;;;;;;6029957;23;20238;-76
2022/05/28 04:38:55;;;;;;;5.25;2.00;;;10.70;99.90;;;;;;6028842;23;20255;-76
2022/05/28 04:41:22;;;;;;;4.60;2.17;;;10.70;99.90;;;;;;6030894;23;20191;-78
2022/05/28 04:43:49;;;;;;;7.28;2.55;;;10.70;99.90;;;;;;6029823;23;20581;-78
2022/05/28 04:46:16;;;;;;;8.52;2.08;;;10.80;99.90;;;;;;6031034;23;20209;-78
2022/05/28 04:48:44;;;;;;;6.82;2.53;;;10.80;99.90;;;;;;6028126;23;20196;-78
2022/05/28 04:51:12;;;;;;;6.10;2.25;;;10.90;99.90;;;;;;6031391;23;20193;-78
2022/05/28 04:53:39;;;;;;;7.90;2.80;;;10.90;99.90;;;;;;6031489;23;20188;-78
2022/05/28 04:56:06;;;;;;;5.90;2.45;;;10.90;99.90;;;;;;6029586;23;20688;-78
2022/05/28 04:58:34;;;;;;;6.18;2.80;;;11.10;99.90;;;;;;6027576;23;20216;-77
2022/05/28 05:01:01;;;;;;;4.45;2.30;;;11.10;99.90;;;;;;6033287;23;20712;-78
2022/05/28 05:03:28;;;;;;;9.68;2.95;;;11.10;99.90;;;;;;6027330;23;20186;-78
2022/05/28 05:05:56;;;;;;;7.57;2.20;;;11.20;99.90;;;;;;6028451;23;20188;-78
2022/05/28 05:08:23;;;;;;;5.03;2.40;;;11.30;99.90;;;;;;6027957;23;20287;-78
2022/05/28 05:10:50;;;;;;;4.97;2.50;;;11.40;99.90;;;;;;6021032;23;20263;-78
2022/05/28 05:13:17;;;;;;;6.28;2.90;;;11.50;99.90;;;;;;6032407;23;20185;-77
2022/05/28 05:15:44;;;;;;;6.05;2.67;;;11.70;99.90;;;;;;6038847;23;20189;-77
2022/05/28 05:18:11;;;;;;;8.13;2.80;;;11.80;99.90;;;;;;6027056;23;20196;-77
2022/05/28 05:20:38;;;;;;;7.57;2.38;;;11.90;99.90;;;;;;6028854;23;20209;-77
2022/05/28 05:23:06;;;;;;;6.75;2.20;;;11.90;99.90;;;;;;6031209;23;20207;-77
2022/05/28 05:25:34;;;;;;;5.15;2.20;;;12.00;99.90;;;;;;6028653;23;20604;-76
2022/05/28 05:28:01;;;;;;;6.28;2.30;;;12.10;99.90;;;;;;6032982;23;20203;-77
2022/05/28 05:30:28;;;;;;;6.55;2.58;;;12.20;99.90;;;;;;6030066;23;20197;-75
2022/05/28 05:32:55;;;;;;;5.05;2.10;;;12.30;99.90;;;;;;6053038;23;20281;-76
2022/05/28 05:35:23;;;;;;;5.47;2.40;;;12.40;99.90;;;;;;6033737;23;20184;-76
2022/05/28 05:37:50;;;;;;;8.52;2.75;;;12.40;99.90;;;;;;6032740;23;20297;-77
2022/05/28 05:40:18;;;;;;;5.38;2.33;;;12.50;99.90;;;;;;6030129;23;20209;-77
2022/05/28 05:42:45;;;;;;;7.53;2.55;;;12.60;99.90;;;;;;6033950;23;20219;-76
2022/05/28 05:45:13;;;;;;;5.18;2.28;;;12.60;99.90;;;;;;6033148;23;20300;-75
2022/05/28 05:47:39;;;;;;;5.82;2.50;;;12.70;99.90;;;;;;6035169;23;20212;-76
2022/05/28 05:50:08;;;;;;;8.73;2.35;;;12.70;99.90;;;;;;6027767;23;20181;-76
2022/05/28 05:52:35;;;;;;;6.57;2.40;;;12.60;99.90;;;;;;6023104;23;20185;-76
2022/05/28 05:55:02;;;;;;;4.10;2.20;;;12.50;99.90;;;;;;6058295;23;20636;-75
2022/05/28 05:57:30;;;;;;;4.18;2.10;;;12.50;99.90;;;;;;6037849;23;20208;-70
2022/05/28 05:59:57;;;;;;;6.50;2.67;;;12.50;99.90;;;;;;6056962;23;20707;-70
2022/05/28 06:02:24;;;;;;;4.28;2.10;;;12.60;99.90;;;;;;6030381;23;20632;-75
2022/05/28 06:04:51;;;;;;;7.32;2.40;;;12.70;99.90;;;;;;6039765;23;20191;-77
2022/05/28 06:07:18;;;;;;;4.60;1.98;;;12.70;99.90;;;;;;6017213;23;20289;-77
2022/05/28 06:09:44;;;;;;;3.00;1.85;;;12.80;99.90;;;;;;6021289;23;20537;-76
2022/05/28 06:12:12;;;;;;;6.93;2.20;;;12.90;99.90;;;;;;6026710;23;20213;-76
2022/05/28 06:14:40;;;;;;;5.38;1.98;;;12.90;99.90;;;;;;6027626;23;20551;-76
2022/05/28 06:17:07;;;;;;;5.03;1.90;;;12.90;99.90;;;;;;6026014;23;20280;-76
2022/05/28 06:19:34;;;;;;;3.38;1.65;;;12.90;99.90;;;;;;6048355;23;20224;-75
2022/05/28 06:22:02;;;;;;;3.88;1.70;;;12.90;99.90;;;;;;6028730;23;20247;-76
2022/05/28 06:24:29;;;;;;;5.90;1.60;;;12.90;99.90;;;;;;6031502;23;20269;-75
2022/05/28 06:26:59;;;;;;;3.88;1.55;;;12.90;99.90;;;;;;6029636;22;20221;-75
2022/05/28 06:29:26;;;;;;;6.05;2.28;;;12.90;99.90;;;;;;6031847;23;20195;-75
2022/05/28 06:31:55;;;;;;;4.07;1.92;;;13.00;99.90;;;;;;6029341;23;20723;-75
2022/05/28 06:34:23;;;;;;;4.43;1.70;;;13.10;99.90;;;;;;6032708;23;20256;-76
2022/05/28 06:36:50;;;;;;;3.85;1.52;;;13.10;99.90;;;;;;6029402;23;20209;-75
2022/05/28 06:39:17;;;;;;;3.55;1.75;;;13.20;99.90;;;;;;6033238;23;20224;-74
2022/05/28 06:41:46;;;;;;;5.47;2.10;;;13.30;99.90;;;;;;6031887;23;20197;-74
2022/05/28 06:44:15;;;;;;;5.07;1.85;;;13.30;99.90;;;;;;6021555;23;20248;-75
2022/05/28 06:46:41;;;;;;;7.30;2.17;;;13.40;99.90;;;;;;6015170;23;20628;-75
2022/05/28 06:49:10;;;;;;;4.03;1.63;;;13.50;99.90;;;;;;6023513;23;20189;-74
2022/05/28 06:51:38;;;;;;;6.20;2.05;;;13.60;99.90;;;;;;6011495;23;20194;-75
2022/05/28 06:54:05;;;;;;;4.30;1.90;;;13.70;99.90;;;;;;6005839;23;20186;-75
2022/05/28 06:56:32;;;;;;;5.28;2.25;;;13.90;99.90;;;;;;6015066;23;20209;-75
2022/05/28 06:58:59;;;;;;;3.28;1.55;;;13.90;99.90;;;;;;6031889;23;20186;-75
2022/05/28 07:01:26;;;;;;;5.22;2.10;;;14.00;99.90;;;;;;6027377;23;20320;-83
2022/05/28 07:03:53;;;;;;;4.18;1.98;;;14.00;99.90;;;;;;6046195;23;20240;-81
2022/05/28 07:06:21;;;;;;;4.57;1.65;;;14.10;99.90;;;;;;6022647;23;20241;-75
2022/05/28 07:08:48;;;;;;;3.38;2.20;;;14.20;99.90;;;;;;6027453;23;20723;-76
2022/05/28 07:11:16;;;;;;;3.15;1.80;;;14.20;99.90;;;;;;6029558;23;20268;-75
2022/05/28 07:13:43;;;;;;;3.53;2.00;;;14.30;99.90;;;;;;6029749;23;20185;-75
2022/05/28 07:16:11;;;;;;;3.73;1.47;;;14.50;99.90;;;;;;6030554;23;20539;-75
2022/05/28 07:18:39;;;;;;;4.47;1.90;;;14.60;99.90;;;;;;6032358;23;20998;-82
2022/05/28 07:21:07;;;;;;;6.20;2.47;;;14.70;99.90;;;;;;6019224;23;20900;-77
2022/05/28 07:23:36;;;;;;;4.10;1.70;;;14.90;99.90;;;;;;6027673;23;20441;-75
2022/05/28 07:26:06;;;;;;;4.80;2.10;;;15.10;99.90;;;;;;6013234;23;20474;-75
2022/05/28 07:28:33;;;;;;;3.87;1.60;;;15.30;99.90;;;;;;6031354;23;20443;-75
2022/05/28 07:31:03;;;;;;;4.90;1.70;;;15.50;99.90;;;;;;6029751;23;20456;-75
2022/05/28 07:33:32;;;;;;;6.03;2.10;;;15.80;99.70;;;;;;6028270;23;20441;-75
2022/05/28 07:36:00;;;;;;;4.97;1.70;;;16.40;98.80;;;;;;6025234;23;20460;-75
2022/05/28 07:38:29;;;;;;;4.90;1.40;;;17.10;99.00;;;;;;6028486;23;20860;-75
2022/05/28 07:41:02;;;;;;;3.77;1.60;;;17.80;97.90;;;;;;6030151;23;20470;-76
2022/05/28 07:43:29;;;;;;;2.50;1.40;;;18.50;95.90;;;;;;6010982;23;20439;-76
2022/05/28 07:45:56;;;;;;;2.60;1.40;;;19.40;94.80;;;;;;6029739;23;20531;-76
2022/05/28 07:48:23;;;;;;;3.23;1.97;;;20.30;92.70;;;;;;6023917;23;20444;-76
2022/05/28 07:50:50;;;;;;;2.60;1.60;;;20.70;91.60;;;;;;6029864;23;20440;-82
2022/05/28 07:53:17;;;;;;;2.00;1.20;;;21.00;90.60;;;;;;6024135;23;20515;-81
2022/05/28 07:55:44;;;;;;;4.27;1.60;;;21.30;88.10;;;;;;6024034;23;20492;-83
2022/05/28 07:58:14;;;;;;;3.43;1.87;;;21.40;86.60;;;;;;6026293;23;20444;-76
2022/05/28 08:00:44;;;;;;;2.93;1.80;;;21.40;85.70;;;;;;6031291;23;20479;-76
2022/05/28 08:03:11;;;;;;;3.80;1.73;;;20.60;85.60;;;;;;6027743;23;20441;-76
2022/05/28 08:05:41;;;;;;;4.83;2.10;;;20.90;85.70;;;;;;6033019;23;20974;-75
2022/05/28 08:08:09;;;;;;;4.00;1.70;;;21.00;86.30;;;;;;6011028;23;21025;-76
2022/05/28 08:10:36;;;;;;;4.10;1.80;;;21.40;86.00;;;;;;6032363;23;20523;-76
2022/05/28 08:13:05;;;;;;;4.03;1.80;;;21.70;85.20;;;;;;6032268;23;20452;-75
2022/05/28 08:15:34;;;;;;;4.80;2.00;;;22.10;80.90;;;;;;6034268;23;20463;-74
2022/05/28 08:18:01;;;;;;;3.60;2.00;;;21.00;81.60;;;;;;6019185;23;20795;-76
2022/05/28 08:23:11;;;;;;;2.70;1.50;;;20.40;84.10;;;;;;6034574;23;20464;-76
2022/05/28 08:25:40;;;;;;;3.77;1.80;;;19.90;86.10;;;;;;6011999;23;20472;-76
2022/05/28 08:28:08;;;;;;;4.53;1.60;;;19.60;85.60;;;;;;6029757;23;20440;-76
2022/05/28 08:30:38;;;;;;;2.80;1.63;;;19.20;86.40;;;;;;6027355;23;20844;-75
2022/05/28 08:33:06;;;;;;;4.77;1.90;;;19.30;87.30;;;;;;6035035;23;20498;-76
2022/05/28 08:35:34;;;;;;;4.70;1.50;;;19.50;86.60;;;;;;6013449;23;20515;-76
2022/05/28 08:38:04;;;;;;;2.53;1.57;;;20.20;86.40;;;;;;6030375;23;20441;-76
2022/05/28 08:40:32;;;;;;;3.10;1.50;;;21.00;83.60;;;;;;6034300;23;20471;-75
2022/05/28 08:43:00;;;;;;;3.93;1.30;;;21.80;82.00;;;;;;6035159;23;20455;-75
2022/05/28 08:45:27;;;;;;;2.90;1.60;;;22.50;77.60;;;;;;6018302;23;21155;-75
2022/05/28 08:47:58;;;;;;;2.93;1.30;;;22.10;76.20;;;;;;6030120;23;20440;-76
2022/05/28 08:50:25;;;;;;;3.70;1.20;;;21.50;78.10;;;;;;6034368;23;20519;-75
2022/05/28 08:53:01;;;;;;;2.50;1.30;;;20.60;78.30;;;;;;6035365;23;20478;-75
2022/05/28 08:55:29;;;;;;;3.40;1.50;;;20.10;79.70;;;;;;6033310;23;20477;-75
2022/05/28 08:58:00;;;;;;;3.47;1.63;;;19.80;80.10;;;;;;6012342;23;20519;-75
2022/05/28 09:00:34;;;;;;;4.90;1.50;;;19.90;81.90;;;;;;6016958;23;20991;-76
2022/05/28 09:03:07;;;;;;;4.17;1.83;;;20.60;80.20;;;;;;6033624;23;20497;-76
2022/05/28 09:05:39;;;;;;;2.30;1.47;;;21.10;79.40;;;;;;6026117;23;20478;-74
2022/05/28 09:08:07;;;;;;;3.67;1.57;;;21.80;77.70;;;;;;6045708;23;20578;-75
2022/05/28 09:10:42;;;;;;;3.93;1.57;;;22.00;76.90;;;;;;6036562;23;20784;-75
2022/05/28 09:13:19;;;;;;;2.53;1.80;;;22.10;76.00;;;;;;6031066;23;20447;-76
2022/05/28 09:15:46;;;;;;;3.80;1.50;;;22.10;75.00;;;;;;6024562;23;20472;-75
2022/05/28 09:18:17;;;;;;;3.40;1.30;;;21.70;75.50;;;;;;6041756;23;20500;-76
2022/05/28 09:20:47;;;;;;;2.70;1.60;;;21.80;76.90;;;;;;6041686;23;20463;-76
2022/05/28 09:23:15;;;;;;;3.23;1.67;;;21.90;76.80;;;;;;6039593;23;21077;-76
2022/05/28 09:25:46;;;;;;;2.50;1.50;;;21.60;76.30;;;;;;6033013;23;20479;-76
2022/05/28 09:28:25;;;;;;;3.80;1.60;;;21.30;77.00;;;;;;6007586;23;20448;-76
2022/05/28 09:30:59;;;;;;;4.10;1.60;;;20.70;77.80;;;;;;6017608;23;20424;-76
2022/05/28 09:33:45;;;;;;;3.03;1.20;;;20.60;79.00;;;;;;6030462;23;20472;-76
2022/05/28 09:36:20;;;;;;;2.10;1.37;;;20.40;77.40;;;;;;6009083;23;20456;-76
2022/05/28 09:38:56;;;;;;;4.03;1.70;;;20.90;77.20;;;;;;6015063;23;20523;-76
2022/05/28 09:41:43;;;;;;;2.63;1.43;;;22.00;75.70;;;;;;6029738;23;20476;-76
2022/05/28 09:44:24;;;;;;;2.50;1.50;;;23.30;74.20;;;;;;6032024;23;20498;-76
2022/05/28 09:46:52;;;;;;;1.77;1.33;;;23.80;70.30;;;;;;6025647;23;20895;-76
2022/05/28 09:49:21;;;;;;;3.63;1.60;;;24.30;69.20;;;;;;6008065;23;20471;-76
2022/05/28 09:51:57;;;;;;;3.00;1.60;;;24.60;69.10;;;;;;6031790;23;20453;-75
2022/05/28 09:54:27;;;;;;;3.87;1.50;;;23.70;68.30;;;;;;6031690;23;20468;-76
2022/05/28 09:56:57;;;;;;;5.07;1.33;;;22.80;69.10;;;;;;6033232;23;20904;-76
2022/05/28 09:59:32;;;;;;;2.00;1.20;;;22.10;70.80;;;;;;6033572;23;20823;-76
2022/05/28 10:02:07;;;;;;;2.17;1.47;;;21.50;71.70;;;;;;6032914;23;20467;-75
2022/05/28 10:04:49;;;;;;;2.30;1.40;;;21.20;73.60;;;;;;6023885;23;20436;-76
2022/05/28 10:07:28;;;;;;;2.03;1.20;;;21.10;73.00;;;;;;6024957;23;20512;-76
2022/05/28 10:09:55;;;;;;;3.50;1.60;;;20.50;74.00;;;;;;6022413;23;20507;-76
2022/05/28 10:12:25;;;;;;;4.27;1.47;;;20.10;75.40;;;;;;6023493;23;20444;-76
2022/05/28 10:15:00;;;;;;;2.80;1.50;;;19.80;76.90;;;;;;6028925;23;20465;-76
2022/05/28 10:17:30;;;;;;;6.00;1.30;;;19.60;77.10;;;;;;6033954;23;20958;-76
2022/05/28 10:20:01;;;;;;;2.13;1.37;;;19.70;77.30;;;;;;6031317;23;21077;-76
2022/05/28 10:22:30;;;;;;;3.03;1.30;;;19.90;76.90;;;;;;6033143;23;20908;-76
2022/05/28 10:25:01;;;;;;;3.00;1.50;;;20.10;75.70;;;;;;6012712;23;20457;-76
2022/05/28 10:27:33;;;;;;;3.13;1.47;;;20.50;74.80;;;;;;6032527;23;20958;-76
2022/05/28 10:30:03;;;;;;;3.80;1.80;;;20.90;72.60;;;;;;6027310;23;20486;-75
2022/05/28 10:32:35;;;;;;;4.70;2.10;;;21.00;72.00;;;;;;6034017;23;20424;-76
2022/05/28 10:35:12;;;;;;;4.13;1.90;;;21.30;70.50;;;;;;6031637;23;20539;-76
2022/05/28 10:37:39;;;;;;;2.90;1.67;;;21.50;70.10;;;;;;6009400;23;20437;-76
2022/05/28 10:40:11;;;;;;;4.83;1.40;;;22.00;69.60;;;;;;6005982;23;20552;-76
2022/05/28 10:42:38;;;;;;;2.70;1.70;;;22.50;68.60;;;;;;6005803;23;20449;-76
2022/05/28 10:45:08;;;;;;;2.40;1.50;;;23.00;67.80;;;;;;6031390;23;20551;-76
2022/05/28 10:48:04;;;;;;;2.47;1.33;;;23.30;66.50;;;;;;6031740;23;20452;-76
2022/05/28 10:50:43;;;;;;;3.80;1.10;;;23.50;66.50;;;;;;6005621;23;20461;-76
2022/05/28 10:53:17;;;;;;;2.60;1.77;;;23.50;62.00;;;;;;6017939;23;20532;-76
2022/05/28 10:55:59;;;;;;;4.87;1.60;;;22.90;63.30;;;;;;6025637;23;20456;-76
2022/05/28 10:58:48;;;;;;;3.30;1.50;;;22.10;63.30;;;;;;6006031;23;21228;-75
2022/05/28 11:01:33;;;;;;;2.90;1.40;;;21.60;64.90;;;;;;6030863;23;21011;-76
2022/05/28 11:04:45;;;;;;;2.10;1.47;;;21.10;64.60;;;;;;6028761;23;20440;-75
2022/05/28 11:07:36;;;;;;;2.00;1.20;;;20.50;66.70;;;;;;5988778;23;21092;-76
2022/05/28 11:10:14;;;;;;;2.20;1.60;;;20.80;67.70;;;;;;6007884;23;20486;-76
2022/05/28 11:13:02;;;;;;;3.73;1.57;;;20.70;67.70;;;;;;6019515;23;20523;-75
2022/05/28 11:15:40;;;;;;;2.93;1.30;;;21.00;67.50;;;;;;6021174;23;20482;-76
2022/05/28 11:18:37;;;;;;;4.70;1.60;;;21.60;66.70;;;;;;6029394;23;20435;-76
2022/05/28 11:21:15;;;;;;;5.00;1.40;;;22.20;65.90;;;;;;6031643;23;20460;-76
2022/05/28 11:24:31;;;;;;;2.70;1.33;;;22.50;63.60;;;;;;6031493;23;20440;-77
2022/05/28 11:27:05;;;;;;;4.20;1.50;;;22.60;65.50;;;;;;6004819;23;20449;-75
2022/05/28 11:29:42;;;;;;;2.87;1.37;;;22.00;65.70;;;;;;6006174;23;20507;-76
2022/05/28 11:32:15;;;;;;;3.27;1.40;;;22.40;65.20;;;;;;6017423;23;20443;-76
2022/05/28 11:34:45;;;;;;;2.60;1.70;;;22.90;65.20;;;;;;6005858;23;20465;-76
2022/05/28 11:37:21;;;;;;;3.93;1.90;;;22.40;63.80;;;;;;6004902;23;20436;-76
2022/05/28 11:39:57;;;;;;;3.20;1.30;;;22.10;65.30;;;;;;6010945;23;20934;-76
2022/05/28 11:42:31;;;;;;;3.10;1.30;;;21.50;65.80;;;;;;6032045;23;20460;-78
2022/05/28 11:45:02;;;;;;;3.23;1.30;;;21.50;66.80;;;;;;6022737;23;20524;-77
2022/05/28 11:47:38;;;;;;;2.30;1.50;;;21.30;66.40;;;;;;6017027;23;20456;-77
2022/05/28 11:53:00;;;;;;;3.63;1.43;;;21.30;66.70;;;;;;6032474;23;20519;-75
2022/05/28 11:55:34;;;;;;;2.60;1.37;;;21.20;64.10;;;;;;6029394;23;20464;-75
2022/05/28 11:58:05;;;;;;;2.90;1.50;;;21.00;64.90;;;;;;6034103;23;20923;-74
2022/05/28 12:00:35;;;;;;;1.67;1.40;;;20.60;65.60;;;;;;6025493;23;20544;-75
2022/05/28 12:03:16;;;;;;;2.60;1.30;;;20.90;66.70;;;;;;6032641;23;20535;-75
2022/05/28 12:05:48;;;;;;;3.07;1.40;;;21.60;66.80;;;;;;6032765;23;20466;-75
2022/05/28 12:08:22;;;;;;;3.60;1.60;;;22.10;64.70;;;;;;6025403;23;20440;-75
2022/05/28 12:10:55;;;;;;;3.27;1.30;;;22.30;63.90;;;;;;6033467;23;20736;-75
2022/05/28 12:13:33;;;;;;;4.33;1.60;;;23.00;64.20;;;;;;6030538;23;21173;-76
2022/05/28 12:16:11;;;;;;;2.73;1.37;;;23.70;63.80;;;;;;6033303;23;20505;-75
2022/05/28 12:18:42;;;;;;;3.60;1.20;;;23.80;61.60;;;;;;6032922;23;20466;-75
2022/05/28 12:21:09;;;;;;;3.13;1.30;;;23.50;62.30;;;;;;6012384;23;20598;-75
2022/05/28 12:23:38;;;;;;;2.90;1.47;;;23.70;61.90;;;;;;6034540;23;20923;-75
2022/05/28 12:26:44;;;;;;;2.57;1.30;;;24.40;63.40;;;;;;6032986;23;20499;-75
2022/05/28 12:29:09;;;;;;;2.00;1.30;;;25.20;61.20;;;;;;6032551;23;20927;-76
2022/05/28 12:31:36;;;;;;;2.40;1.30;;;25.60;60.80;;;;;;6030657;23;20961;-76
2022/05/28 12:34:03;;;;;;;3.57;1.67;;;26.00;59.10;;;;;;6031342;23;20519;-76
2022/05/28 12:36:41;;;;;;;2.00;1.27;;;25.90;58.60;;;;;;6025938;23;20447;-75
2022/05/28 12:39:33;;;;;;;2.87;1.50;;;24.50;58.30;;;;;;6033653;23;20464;-75
2022/05/28 12:42:03;;;;;;;2.27;1.90;;;23.60;60.20;;;;;;6032832;23;20482;-75
2022/05/28 12:44:30;;;;;;;4.47;1.43;;;23.50;60.90;;;;;;6031847;23;21061;-75
2022/05/28 12:47:00;;;;;;;3.93;1.63;;;23.70;60.80;;;;;;6033882;23;20455;-75
2022/05/28 12:49:31;;;;;;;4.00;1.50;;;23.10;59.70;;;;;;6021430;23;20842;-75
2022/05/28 12:52:25;;;;;;;2.87;1.50;;;22.80;60.60;;;;;;6034522;23;20447;-75
2022/05/28 12:55:05;;;;;;;2.30;1.30;;;23.00;61.00;;;;;;5999686;23;20467;-75
2022/05/28 12:57:37;;;;;;;3.50;1.37;;;22.80;60.00;;;;;;6006227;23;20429;-75
2022/05/28 13:00:09;;;;;;;2.30;1.40;;;23.10;59.90;;;;;;6029987;23;20493;-75
2022/05/28 13:02:41;;;;;;;3.37;1.50;;;22.90;59.30;;;;;;6033470;23;20464;-75
2022/05/28 13:05:12;;;;;;;2.83;1.20;;;22.90;59.40;;;;;;6033194;23;20620;-76
2022/05/28 13:07:50;;;;;;;3.63;1.40;;;23.20;60.50;;;;;;6006834;23;20441;-76
2022/05/28 13:10:21;;;;;;;3.47;1.53;;;23.10;59.10;;;;;;6032517;23;20440;-75